sensor_id;sensor_type;location;lat;lon;timestamp;temperature;humidity
51878;SHT31;37911;51.526;11.536;2023-12-20T00:00:21;4.64;92.86
51878;SHT31;37911;51.526;11.536;2023-12-20T00:03:24;4.64;92.92
51878;SHT31;37911;51.526;11.536;2023-12-20T00:06:27;4.60;93.12
51878;SHT31;37911;51.526;11.536;2023-12-20T00:09:30;4.62;93.06
51878;SHT31;37911;51.526;11.536;2023-12-20T00:12:36;4.67;92.98
51878;SHT31;37911;51.526;11.536;2023-12-20T00:15:40;4.61;93.02
51878;SHT31;37911;51.526;11.536;2023-12-20T00:18:43;4.62;93.04
51878;SHT31;37911;51.526;11.536;2023-12-20T00:21:46;4.62;92.89
51878;SHT31;37911;51.526;11.536;2023-12-20T00:24:49;4.60;92.98
51878;SHT31;37911;51.526;11.536;2023-12-20T00:27:55;4.67;92.91
51878;SHT31;37911;51.526;11.536;2023-12-20T00:30:58;4.62;92.95
51878;SHT31;37911;51.526;11.536;2023-12-20T00:34:02;4.58;93.10
51878;SHT31;37911;51.526;11.536;2023-12-20T00:37:06;4.64;92.84
51878;SHT31;37911;51.526;11.536;2023-12-20T00:40:10;4.61;92.95
51878;SHT31;37911;51.526;11.536;2023-12-20T00:43:16;4.61;92.99
51878;SHT31;37911;51.526;11.536;2023-12-20T00:46:19;4.64;92.97
51878;SHT31;37911;51.526;11.536;2023-12-20T00:49:22;4.64;92.88
51878;SHT31;37911;51.526;11.536;2023-12-20T00:52:26;4.58;93.04
51878;SHT31;37911;51.526;11.536;2023-12-20T00:55:29;4.62;93.04
51878;SHT31;37911;51.526;11.536;2023-12-20T00:58:35;4.60;93.05
51878;SHT31;37911;51.526;11.536;2023-12-20T01:01:38;4.64;93.01
51878;SHT31;37911;51.526;11.536;2023-12-20T01:04:42;4.67;92.87
51878;SHT31;37911;51.526;11.536;2023-12-20T01:07:45;4.60;93.26
51878;SHT31;37911;51.526;11.536;2023-12-20T01:10:48;4.65;93.13
51878;SHT31;37911;51.526;11.536;2023-12-20T01:13:54;4.60;93.32
51878;SHT31;37911;51.526;11.536;2023-12-20T01:16:57;4.62;93.34
51878;SHT31;37911;51.526;11.536;2023-12-20T01:20:01;4.64;93.22
51878;SHT31;37911;51.526;11.536;2023-12-20T01:23:04;4.67;93.08
51878;SHT31;37911;51.526;11.536;2023-12-20T01:26:07;4.65;93.12
51878;SHT31;37911;51.526;11.536;2023-12-20T01:29:13;4.64;93.20
51878;SHT31;37911;51.526;11.536;2023-12-20T01:32:17;4.62;93.19
51878;SHT31;37911;51.526;11.536;2023-12-20T01:35:20;4.64;93.22
51878;SHT31;37911;51.526;11.536;2023-12-20T01:38:23;4.62;93.40
51878;SHT31;37911;51.526;11.536;2023-12-20T01:41:26;4.69;93.00
51878;SHT31;37911;51.526;11.536;2023-12-20T01:44:32;4.64;93.18
51878;SHT31;37911;51.526;11.536;2023-12-20T01:47:36;4.71;93.15
51878;SHT31;37911;51.526;11.536;2023-12-20T01:50:39;4.62;93.19
51878;SHT31;37911;51.526;11.536;2023-12-20T01:53:44;4.62;93.33
51878;SHT31;37911;51.526;11.536;2023-12-20T01:56:48;4.68;93.25
51878;SHT31;37911;51.526;11.536;2023-12-20T01:59:55;4.64;93.36
51878;SHT31;37911;51.526;11.536;2023-12-20T02:03:00;4.68;93.18
51878;SHT31;37911;51.526;11.536;2023-12-20T02:06:05;4.67;93.28
51878;SHT31;37911;51.526;11.536;2023-12-20T02:09:08;4.65;93.30
51878;SHT31;37911;51.526;11.536;2023-12-20T02:12:11;4.65;93.41
51878;SHT31;37911;51.526;11.536;2023-12-20T02:15:17;4.68;93.37
51878;SHT31;37911;51.526;11.536;2023-12-20T02:18:21;4.64;93.46
51878;SHT31;37911;51.526;11.536;2023-12-20T02:21:32;4.68;93.32
51878;SHT31;37911;51.526;11.536;2023-12-20T02:24:36;4.68;93.49
51878;SHT31;37911;51.526;11.536;2023-12-20T02:27:39;4.65;93.64
51878;SHT31;37911;51.526;11.536;2023-12-20T02:30:42;4.65;93.51
51878;SHT31;37911;51.526;11.536;2023-12-20T02:33:46;4.64;93.65
51878;SHT31;37911;51.526;11.536;2023-12-20T02:36:52;4.64;93.62
51878;SHT31;37911;51.526;11.536;2023-12-20T02:39:55;4.71;93.50
51878;SHT31;37911;51.526;11.536;2023-12-20T02:42:58;4.71;93.53
51878;SHT31;37911;51.526;11.536;2023-12-20T02:46:02;4.67;93.65
51878;SHT31;37911;51.526;11.536;2023-12-20T02:49:05;4.67;93.73
51878;SHT31;37911;51.526;11.536;2023-12-20T02:52:11;4.68;93.82
51878;SHT31;37911;51.526;11.536;2023-12-20T02:55:14;4.72;93.73
51878;SHT31;37911;51.526;11.536;2023-12-20T02:58:18;4.68;93.86
51878;SHT31;37911;51.526;11.536;2023-12-20T03:01:21;4.71;94.02
51878;SHT31;37911;51.526;11.536;2023-12-20T03:04:24;4.69;93.99
51878;SHT31;37911;51.526;11.536;2023-12-20T03:07:30;4.71;93.95
51878;SHT31;37911;51.526;11.536;2023-12-20T03:10:33;4.76;93.88
51878;SHT31;37911;51.526;11.536;2023-12-20T03:13:37;4.73;94.06
51878;SHT31;37911;51.526;11.536;2023-12-20T03:16:40;4.76;93.99
51878;SHT31;37911;51.526;11.536;2023-12-20T03:19:43;4.78;93.90
51878;SHT31;37911;51.526;11.536;2023-12-20T03:22:49;4.76;94.00
51878;SHT31;37911;51.526;11.536;2023-12-20T03:25:52;4.78;94.00
51878;SHT31;37911;51.526;11.536;2023-12-20T03:28:56;4.76;94.15
51878;SHT31;37911;51.526;11.536;2023-12-20T03:31:59;4.81;94.12
51878;SHT31;37911;51.526;11.536;2023-12-20T03:35:02;4.82;94.25
51878;SHT31;37911;51.526;11.536;2023-12-20T03:38:08;4.85;94.17
51878;SHT31;37911;51.526;11.536;2023-12-20T03:41:12;4.89;94.10
51878;SHT31;37911;51.526;11.536;2023-12-20T03:44:15;4.92;94.07
51878;SHT31;37911;51.526;11.536;2023-12-20T03:47:18;4.88;94.17
51878;SHT31;37911;51.526;11.536;2023-12-20T03:50:22;4.89;94.15
51878;SHT31;37911;51.526;11.536;2023-12-20T03:53:27;4.88;94.19
51878;SHT31;37911;51.526;11.536;2023-12-20T03:56:31;4.89;94.14
51878;SHT31;37911;51.526;11.536;2023-12-20T03:59:35;4.96;94.07
51878;SHT31;37911;51.526;11.536;2023-12-20T04:02:38;4.95;94.09
51878;SHT31;37911;51.526;11.536;2023-12-20T04:05:41;4.93;94.04
51878;SHT31;37911;51.526;11.536;2023-12-20T04:08:47;4.89;94.04
51878;SHT31;37911;51.526;11.536;2023-12-20T04:11:50;4.91;94.08
51878;SHT31;37911;51.526;11.536;2023-12-20T04:14:54;4.88;94.10
51878;SHT31;37911;51.526;11.536;2023-12-20T04:17:57;4.83;94.06
51878;SHT31;37911;51.526;11.536;2023-12-20T04:21:00;4.79;94.03
51878;SHT31;37911;51.526;11.536;2023-12-20T04:24:07;4.73;94.06
51878;SHT31;37911;51.526;11.536;2023-12-20T04:27:10;4.64;94.05
51878;SHT31;37911;51.526;11.536;2023-12-20T04:30:13;4.64;94.11
51878;SHT31;37911;51.526;11.536;2023-12-20T04:33:17;4.65;94.14
51878;SHT31;37911;51.526;11.536;2023-12-20T04:36:20;4.64;94.10
51878;SHT31;37911;51.526;11.536;2023-12-20T04:39:26;4.62;94.09
51878;SHT31;37911;51.526;11.536;2023-12-20T04:42:29;4.58;94.18
51878;SHT31;37911;51.526;11.536;2023-12-20T04:45:32;4.61;94.07
51878;SHT31;37911;51.526;11.536;2023-12-20T04:48:36;4.62;93.81
51878;SHT31;37911;51.526;11.536;2023-12-20T04:51:39;4.62;93.77
51878;SHT31;37911;51.526;11.536;2023-12-20T04:54:45;4.64;93.78
51878;SHT31;37911;51.526;11.536;2023-12-20T04:57:48;4.64;93.51
51878;SHT31;37911;51.526;11.536;2023-12-20T05:00:51;4.62;93.54
51878;SHT31;37911;51.526;11.536;2023-12-20T05:03:55;4.61;93.54
51878;SHT31;37911;51.526;11.536;2023-12-20T05:06:58;4.62;93.43
51878;SHT31;37911;51.526;11.536;2023-12-20T05:10:06;4.60;93.44
51878;SHT31;37911;51.526;11.536;2023-12-20T05:13:09;4.58;93.30
51878;SHT31;37911;51.526;11.536;2023-12-20T05:16:13;4.58;93.25
51878;SHT31;37911;51.526;11.536;2023-12-20T05:19:18;4.57;93.20
51878;SHT31;37911;51.526;11.536;2023-12-20T05:22:21;4.61;93.08
51878;SHT31;37911;51.526;11.536;2023-12-20T05:25:27;4.64;92.99
51878;SHT31;37911;51.526;11.536;2023-12-20T05:28:30;4.68;92.82
51878;SHT31;37911;51.526;11.536;2023-12-20T05:31:33;4.69;92.83
51878;SHT31;37911;51.526;11.536;2023-12-20T05:34:37;4.68;92.63
51878;SHT31;37911;51.526;11.536;2023-12-20T05:37:40;4.58;92.37
51878;SHT31;37911;51.526;11.536;2023-12-20T05:40:46;4.52;92.22
51878;SHT31;37911;51.526;11.536;2023-12-20T05:43:49;4.48;92.08
51878;SHT31;37911;51.526;11.536;2023-12-20T05:46:52;4.44;91.81
51878;SHT31;37911;51.526;11.536;2023-12-20T05:49:56;4.33;91.62
51878;SHT31;37911;51.526;11.536;2023-12-20T05:52:59;4.30;91.58
51878;SHT31;37911;51.526;11.536;2023-12-20T05:56:05;4.25;91.28
51878;SHT31;37911;51.526;11.536;2023-12-20T05:59:08;4.21;90.99
51878;SHT31;37911;51.526;11.536;2023-12-20T06:02:12;4.17;90.96
51878;SHT31;37911;51.526;11.536;2023-12-20T06:05:15;4.24;90.62
51878;SHT31;37911;51.526;11.536;2023-12-20T06:08:18;4.30;90.62
51878;SHT31;37911;51.526;11.536;2023-12-20T06:11:24;4.34;90.55
51878;SHT31;37911;51.526;11.536;2023-12-20T06:14:27;4.41;90.38
51878;SHT31;37911;51.526;11.536;2023-12-20T06:17:31;4.48;89.96
51878;SHT31;37911;51.526;11.536;2023-12-20T06:20:35;4.48;89.90
51878;SHT31;37911;51.526;11.536;2023-12-20T06:23:39;4.50;89.45
51878;SHT31;37911;51.526;11.536;2023-12-20T06:26:44;4.48;89.46
51878;SHT31;37911;51.526;11.536;2023-12-20T06:29:48;4.55;88.89
51878;SHT31;37911;51.526;11.536;2023-12-20T06:32:51;4.52;88.78
51878;SHT31;37911;51.526;11.536;2023-12-20T06:35:57;4.52;88.50
51878;SHT31;37911;51.526;11.536;2023-12-20T06:39:02;4.54;87.97
51878;SHT31;37911;51.526;11.536;2023-12-20T06:42:08;4.61;88.05
51878;SHT31;37911;51.526;11.536;2023-12-20T06:45:11;4.69;88.07
51878;SHT31;37911;51.526;11.536;2023-12-20T06:48:14;4.67;88.24
51878;SHT31;37911;51.526;11.536;2023-12-20T06:51:18;4.71;87.80
51878;SHT31;37911;51.526;11.536;2023-12-20T06:54:25;4.76;87.58
51878;SHT31;37911;51.526;11.536;2023-12-20T06:57:32;4.82;87.56
51878;SHT31;37911;51.526;11.536;2023-12-20T07:00:36;4.78;87.73
51878;SHT31;37911;51.526;11.536;2023-12-20T07:03:39;4.79;87.80
51878;SHT31;37911;51.526;11.536;2023-12-20T07:06:43;4.81;88.01
51878;SHT31;37911;51.526;11.536;2023-12-20T07:09:46;4.78;88.07
51878;SHT31;37911;51.526;11.536;2023-12-20T07:12:52;4.82;87.86
51878;SHT31;37911;51.526;11.536;2023-12-20T07:15:55;4.82;87.88
51878;SHT31;37911;51.526;11.536;2023-12-20T07:18:59;4.83;87.64
51878;SHT31;37911;51.526;11.536;2023-12-20T07:22:02;4.93;86.93
51878;SHT31;37911;51.526;11.536;2023-12-20T07:25:06;4.88;87.30
51878;SHT31;37911;51.526;11.536;2023-12-20T07:28:13;4.88;87.37
51878;SHT31;37911;51.526;11.536;2023-12-20T07:31:16;4.86;87.39
51878;SHT31;37911;51.526;11.536;2023-12-20T07:34:20;4.86;87.16
51878;SHT31;37911;51.526;11.536;2023-12-20T07:37:23;4.79;87.25
51878;SHT31;37911;51.526;11.536;2023-12-20T07:40:27;4.81;86.97
51878;SHT31;37911;51.526;11.536;2023-12-20T07:43:33;4.81;87.05
51878;SHT31;37911;51.526;11.536;2023-12-20T07:46:36;4.79;86.95
51878;SHT31;37911;51.526;11.536;2023-12-20T07:49:40;4.81;86.75
51878;SHT31;37911;51.526;11.536;2023-12-20T07:52:43;4.91;86.23
51878;SHT31;37911;51.526;11.536;2023-12-20T07:55:46;4.83;86.36
51878;SHT31;37911;51.526;11.536;2023-12-20T07:58:52;4.85;86.31
51878;SHT31;37911;51.526;11.536;2023-12-20T08:01:55;4.78;86.40
51878;SHT31;37911;51.526;11.536;2023-12-20T08:04:58;4.75;86.57
51878;SHT31;37911;51.526;11.536;2023-12-20T08:08:01;4.75;86.94
51878;SHT31;37911;51.526;11.536;2023-12-20T08:11:05;4.71;87.22
51878;SHT31;37911;51.526;11.536;2023-12-20T08:14:11;4.71;87.34
51878;SHT31;37911;51.526;11.536;2023-12-20T08:17:14;4.83;86.83
51878;SHT31;37911;51.526;11.536;2023-12-20T08:20:19;4.79;87.02
51878;SHT31;37911;51.526;11.536;2023-12-20T08:23:22;4.81;87.16
51878;SHT31;37911;51.526;11.536;2023-12-20T08:26:26;4.83;86.98
51878;SHT31;37911;51.526;11.536;2023-12-20T08:29:32;4.83;86.94
51878;SHT31;37911;51.526;11.536;2023-12-20T08:32:35;4.78;87.04
51878;SHT31;37911;51.526;11.536;2023-12-20T08:35:39;4.82;87.12
51878;SHT31;37911;51.526;11.536;2023-12-20T08:38:42;4.91;86.77
51878;SHT31;37911;51.526;11.536;2023-12-20T08:41:46;5.00;86.50
51878;SHT31;37911;51.526;11.536;2023-12-20T08:44:52;5.09;85.80
51878;SHT31;37911;51.526;11.536;2023-12-20T08:47:55;5.05;85.92
51878;SHT31;37911;51.526;11.536;2023-12-20T08:50:58;5.18;84.98
51878;SHT31;37911;51.526;11.536;2023-12-20T08:54:01;5.18;84.72
51878;SHT31;37911;51.526;11.536;2023-12-20T08:57:08;5.25;84.79
51878;SHT31;37911;51.526;11.536;2023-12-20T09:00:14;5.33;84.28
51878;SHT31;37911;51.526;11.536;2023-12-20T09:03:20;5.48;84.37
51878;SHT31;37911;51.526;11.536;2023-12-20T09:06:24;5.61;84.09
51878;SHT31;37911;51.526;11.536;2023-12-20T09:09:27;5.64;83.83
51878;SHT31;37911;51.526;11.536;2023-12-20T09:12:32;5.61;83.92
51878;SHT31;37911;51.526;11.536;2023-12-20T09:15:39;5.61;83.83
51878;SHT31;37911;51.526;11.536;2023-12-20T09:18:42;5.57;84.24
51878;SHT31;37911;51.526;11.536;2023-12-20T09:21:45;5.56;84.91
51878;SHT31;37911;51.526;11.536;2023-12-20T09:24:48;5.48;85.63
51878;SHT31;37911;51.526;11.536;2023-12-20T09:27:52;5.48;85.78
51878;SHT31;37911;51.526;11.536;2023-12-20T09:30:58;5.48;85.85
51878;SHT31;37911;51.526;11.536;2023-12-20T09:34:01;5.37;86.13
51878;SHT31;37911;51.526;11.536;2023-12-20T09:37:04;5.42;85.18
51878;SHT31;37911;51.526;11.536;2023-12-20T09:40:11;5.48;84.72
51878;SHT31;37911;51.526;11.536;2023-12-20T09:43:19;5.60;83.57
51878;SHT31;37911;51.526;11.536;2023-12-20T09:46:26;5.77;83.00
51878;SHT31;37911;51.526;11.536;2023-12-20T09:49:32;5.88;82.88
51878;SHT31;37911;51.526;11.536;2023-12-20T09:52:36;6.05;82.35
51878;SHT31;37911;51.526;11.536;2023-12-20T09:55:42;6.15;82.25
51878;SHT31;37911;51.526;11.536;2023-12-20T09:58:45;6.12;82.02
51878;SHT31;37911;51.526;11.536;2023-12-20T10:01:55;6.02;81.85
51878;SHT31;37911;51.526;11.536;2023-12-20T10:05:00;6.02;82.38
51878;SHT31;37911;51.526;11.536;2023-12-20T10:08:04;5.98;82.44
51878;SHT31;37911;51.526;11.536;2023-12-20T10:11:08;6.02;82.59
51878;SHT31;37911;51.526;11.536;2023-12-20T10:14:12;6.17;82.32
51878;SHT31;37911;51.526;11.536;2023-12-20T10:17:17;6.20;82.04
51878;SHT31;37911;51.526;11.536;2023-12-20T10:20:21;6.22;81.71
51878;SHT31;37911;51.526;11.536;2023-12-20T10:23:24;6.35;81.86
51878;SHT31;37911;51.526;11.536;2023-12-20T10:26:28;6.42;80.65
51878;SHT31;37911;51.526;11.536;2023-12-20T10:29:35;6.45;80.85
51878;SHT31;37911;51.526;11.536;2023-12-20T10:32:41;6.49;80.59
51878;SHT31;37911;51.526;11.536;2023-12-20T10:35:44;6.73;80.99
51878;SHT31;37911;51.526;11.536;2023-12-20T10:38:50;6.85;80.07
51878;SHT31;37911;51.526;11.536;2023-12-20T10:41:54;6.96;79.37
51878;SHT31;37911;51.526;11.536;2023-12-20T10:44:59;6.90;80.03
51878;SHT31;37911;51.526;11.536;2023-12-20T10:48:06;6.69;80.83
51878;SHT31;37911;51.526;11.536;2023-12-20T10:51:10;6.62;81.36
51878;SHT31;37911;51.526;11.536;2023-12-20T10:54:14;6.55;81.15
51878;SHT31;37911;51.526;11.536;2023-12-20T10:57:18;6.42;81.74
51878;SHT31;37911;51.526;11.536;2023-12-20T11:00:23;6.33;82.51
51878;SHT31;37911;51.526;11.536;2023-12-20T11:03:32;6.31;83.06
51878;SHT31;37911;51.526;11.536;2023-12-20T11:06:49;6.21;83.88
51878;SHT31;37911;51.526;11.536;2023-12-20T11:09:58;6.21;84.35
51878;SHT31;37911;51.526;11.536;2023-12-20T11:13:07;6.18;83.83
51878;SHT31;37911;51.526;11.536;2023-12-20T11:16:12;6.29;83.01
51878;SHT31;37911;51.526;11.536;2023-12-20T11:19:18;6.26;82.70
51878;SHT31;37911;51.526;11.536;2023-12-20T11:22:22;6.25;82.70
51878;SHT31;37911;51.526;11.536;2023-12-20T11:25:25;6.22;83.26
51878;SHT31;37911;51.526;11.536;2023-12-20T11:28:29;6.32;83.06
51878;SHT31;37911;51.526;11.536;2023-12-20T11:31:39;6.49;82.40
51878;SHT31;37911;51.526;11.536;2023-12-20T11:34:45;6.59;81.99
51878;SHT31;37911;51.526;11.536;2023-12-20T11:37:49;6.48;81.82
51878;SHT31;37911;51.526;11.536;2023-12-20T11:40:54;6.46;81.90
51878;SHT31;37911;51.526;11.536;2023-12-20T11:43:58;6.46;81.42
51878;SHT31;37911;51.526;11.536;2023-12-20T11:47:01;6.55;81.18
51878;SHT31;37911;51.526;11.536;2023-12-20T11:50:08;6.55;81.70
51878;SHT31;37911;51.526;11.536;2023-12-20T11:53:11;6.56;81.61
51878;SHT31;37911;51.526;11.536;2023-12-20T11:56:15;6.57;80.94
51878;SHT31;37911;51.526;11.536;2023-12-20T11:59:18;6.59;80.68
51878;SHT31;37911;51.526;11.536;2023-12-20T12:02:21;6.61;80.59
51878;SHT31;37911;51.526;11.536;2023-12-20T12:05:27;6.66;79.63
51878;SHT31;37911;51.526;11.536;2023-12-20T12:08:32;6.68;79.80
51878;SHT31;37911;51.526;11.536;2023-12-20T12:11:35;6.72;79.63
51878;SHT31;37911;51.526;11.536;2023-12-20T12:14:39;6.68;80.59
51878;SHT31;37911;51.526;11.536;2023-12-20T12:17:43;6.69;80.88
51878;SHT31;37911;51.526;11.536;2023-12-20T12:20:49;6.65;82.20
51878;SHT31;37911;51.526;11.536;2023-12-20T12:23:52;6.53;82.92
51878;SHT31;37911;51.526;11.536;2023-12-20T12:26:57;6.49;83.35
51878;SHT31;37911;51.526;11.536;2023-12-20T12:30:02;6.43;83.29
51878;SHT31;37911;51.526;11.536;2023-12-20T12:33:07;6.35;83.68
51878;SHT31;37911;51.526;11.536;2023-12-20T12:36:13;6.35;83.81
51878;SHT31;37911;51.526;11.536;2023-12-20T12:39:18;6.28;83.51
51878;SHT31;37911;51.526;11.536;2023-12-20T12:42:22;6.25;83.14
51878;SHT31;37911;51.526;11.536;2023-12-20T12:45:29;6.24;82.99
51878;SHT31;37911;51.526;11.536;2023-12-20T12:48:33;6.25;83.09
51878;SHT31;37911;51.526;11.536;2023-12-20T12:51:39;6.25;82.78
51878;SHT31;37911;51.526;11.536;2023-12-20T12:54:42;6.28;82.57
51878;SHT31;37911;51.526;11.536;2023-12-20T12:57:46;6.26;82.36
51878;SHT31;37911;51.526;11.536;2023-12-20T13:00:49;6.17;83.02
51878;SHT31;37911;51.526;11.536;2023-12-20T13:03:53;6.17;83.40
51878;SHT31;37911;51.526;11.536;2023-12-20T13:06:59;6.15;84.19
51878;SHT31;37911;51.526;11.536;2023-12-20T13:10:02;6.15;84.45
51878;SHT31;37911;51.526;11.536;2023-12-20T13:13:06;6.04;85.43
51878;SHT31;37911;51.526;11.536;2023-12-20T13:16:09;6.04;85.46
51878;SHT31;37911;51.526;11.536;2023-12-20T13:19:13;6.05;86.19
51878;SHT31;37911;51.526;11.536;2023-12-20T13:22:19;6.02;86.18
51878;SHT31;37911;51.526;11.536;2023-12-20T13:25:22;6.12;86.01
51878;SHT31;37911;51.526;11.536;2023-12-20T13:28:25;6.15;86.38
51878;SHT31;37911;51.526;11.536;2023-12-20T13:31:29;6.18;86.36
51878;SHT31;37911;51.526;11.536;2023-12-20T13:34:32;6.22;86.09
51878;SHT31;37911;51.526;11.536;2023-12-20T13:37:38;6.25;86.29
51878;SHT31;37911;51.526;11.536;2023-12-20T13:40:42;6.20;86.21
51878;SHT31;37911;51.526;11.536;2023-12-20T13:43:46;6.20;86.20
51878;SHT31;37911;51.526;11.536;2023-12-20T13:46:49;6.17;86.37
51878;SHT31;37911;51.526;11.536;2023-12-20T13:49:52;6.20;86.79
51878;SHT31;37911;51.526;11.536;2023-12-20T13:52:59;6.25;86.80
51878;SHT31;37911;51.526;11.536;2023-12-20T13:56:05;6.29;86.39
51878;SHT31;37911;51.526;11.536;2023-12-20T13:59:08;6.20;86.87
51878;SHT31;37911;51.526;11.536;2023-12-20T14:02:13;6.21;86.70
51878;SHT31;37911;51.526;11.536;2023-12-20T14:05:16;6.21;86.84
51878;SHT31;37911;51.526;11.536;2023-12-20T14:08:23;6.15;86.82
51878;SHT31;37911;51.526;11.536;2023-12-20T14:11:27;6.08;86.77
51878;SHT31;37911;51.526;11.536;2023-12-20T14:14:30;6.11;86.60
51878;SHT31;37911;51.526;11.536;2023-12-20T14:17:33;6.05;87.23
51878;SHT31;37911;51.526;11.536;2023-12-20T14:20:37;6.08;87.31
51878;SHT31;37911;51.526;11.536;2023-12-20T14:23:43;6.05;87.49
51878;SHT31;37911;51.526;11.536;2023-12-20T14:26:46;6.01;87.58
51878;SHT31;37911;51.526;11.536;2023-12-20T14:29:50;6.00;87.83
51878;SHT31;37911;51.526;11.536;2023-12-20T14:32:53;5.97;88.01
51878;SHT31;37911;51.526;11.536;2023-12-20T14:35:56;5.97;88.25
51878;SHT31;37911;51.526;11.536;2023-12-20T14:39:02;5.98;88.25
51878;SHT31;37911;51.526;11.536;2023-12-20T14:42:06;5.95;88.08
51878;SHT31;37911;51.526;11.536;2023-12-20T14:45:12;5.86;88.65
51878;SHT31;37911;51.526;11.536;2023-12-20T14:48:16;5.77;89.10
51878;SHT31;37911;51.526;11.536;2023-12-20T14:51:20;5.73;89.54
51878;SHT31;37911;51.526;11.536;2023-12-20T14:54:26;5.73;89.67
51878;SHT31;37911;51.526;11.536;2023-12-20T14:57:29;5.66;90.14
51878;SHT31;37911;51.526;11.536;2023-12-20T15:00:32;5.66;90.21
51878;SHT31;37911;51.526;11.536;2023-12-20T15:03:36;5.66;89.98
51878;SHT31;37911;51.526;11.536;2023-12-20T15:06:40;5.67;89.64
51878;SHT31;37911;51.526;11.536;2023-12-20T15:09:46;5.64;90.00
51878;SHT31;37911;51.526;11.536;2023-12-20T15:12:50;5.67;89.88
51878;SHT31;37911;51.526;11.536;2023-12-20T15:15:53;5.64;90.24
51878;SHT31;37911;51.526;11.536;2023-12-20T15:18:56;5.61;90.20
51878;SHT31;37911;51.526;11.536;2023-12-20T15:21:59;5.60;90.33
51878;SHT31;37911;51.526;11.536;2023-12-20T15:25:07;5.60;90.35
51878;SHT31;37911;51.526;11.536;2023-12-20T15:28:11;5.64;90.01
51878;SHT31;37911;51.526;11.536;2023-12-20T15:31:14;5.66;89.97
51878;SHT31;37911;51.526;11.536;2023-12-20T15:34:17;5.66;89.99
51878;SHT31;37911;51.526;11.536;2023-12-20T15:37:21;5.64;90.06
51878;SHT31;37911;51.526;11.536;2023-12-20T15:40:29;5.66;90.09
51878;SHT31;37911;51.526;11.536;2023-12-20T15:43:32;5.73;89.78
51878;SHT31;37911;51.526;11.536;2023-12-20T15:46:38;5.66;90.07
51878;SHT31;37911;51.526;11.536;2023-12-20T15:49:42;5.70;90.42
51878;SHT31;37911;51.526;11.536;2023-12-20T15:52:47;5.68;90.44
51878;SHT31;37911;51.526;11.536;2023-12-20T15:55:53;5.61;90.87
51878;SHT31;37911;51.526;11.536;2023-12-20T15:58:57;5.64;90.76
51878;SHT31;37911;51.526;11.536;2023-12-20T16:02:00;5.64;90.98
51878;SHT31;37911;51.526;11.536;2023-12-20T16:05:05;5.66;90.85
51878;SHT31;37911;51.526;11.536;2023-12-20T16:08:08;5.63;90.82
51878;SHT31;37911;51.526;11.536;2023-12-20T16:11:14;5.63;90.87
51878;SHT31;37911;51.526;11.536;2023-12-20T16:14:18;5.63;90.85
51878;SHT31;37911;51.526;11.536;2023-12-20T16:17:21;5.63;90.75
51878;SHT31;37911;51.526;11.536;2023-12-20T16:20:24;5.64;90.53
51878;SHT31;37911;51.526;11.536;2023-12-20T16:23:28;5.63;90.31
51878;SHT31;37911;51.526;11.536;2023-12-20T16:26:34;5.63;90.06
51878;SHT31;37911;51.526;11.536;2023-12-20T16:29:37;5.54;89.90
51878;SHT31;37911;51.526;11.536;2023-12-20T16:32:40;5.51;89.88
51878;SHT31;37911;51.526;11.536;2023-12-20T16:35:44;5.54;89.74
51878;SHT31;37911;51.526;11.536;2023-12-20T16:38:47;5.54;89.19
51878;SHT31;37911;51.526;11.536;2023-12-20T16:41:53;5.56;89.27
51878;SHT31;37911;51.526;11.536;2023-12-20T16:44:56;5.54;89.04
51878;SHT31;37911;51.526;11.536;2023-12-20T16:47:59;5.48;89.23
51878;SHT31;37911;51.526;11.536;2023-12-20T16:51:03;5.46;89.08
51878;SHT31;37911;51.526;11.536;2023-12-20T16:54:06;5.48;89.13
51878;SHT31;37911;51.526;11.536;2023-12-20T16:57:12;5.47;89.08
51878;SHT31;37911;51.526;11.536;2023-12-20T17:00:18;5.40;89.32
51878;SHT31;37911;51.526;11.536;2023-12-20T17:03:23;5.44;89.29
51878;SHT31;37911;51.526;11.536;2023-12-20T17:06:26;5.42;89.26
51878;SHT31;37911;51.526;11.536;2023-12-20T17:09:30;5.43;88.86
51878;SHT31;37911;51.526;11.536;2023-12-20T17:12:36;5.37;88.82
51878;SHT31;37911;51.526;11.536;2023-12-20T17:15:40;5.32;88.90
51878;SHT31;37911;51.526;11.536;2023-12-20T17:18:44;5.27;89.13
51878;SHT31;37911;51.526;11.536;2023-12-20T17:21:49;5.26;89.25
51878;SHT31;37911;51.526;11.536;2023-12-20T17:24:53;5.30;89.25
51878;SHT31;37911;51.526;11.536;2023-12-20T17:27:58;5.27;89.26
51878;SHT31;37911;51.526;11.536;2023-12-20T17:31:02;5.25;89.39
51878;SHT31;37911;51.526;11.536;2023-12-20T17:34:05;5.23;89.55
51878;SHT31;37911;51.526;11.536;2023-12-20T17:37:09;5.25;89.50
51878;SHT31;37911;51.526;11.536;2023-12-20T17:40:13;5.25;89.64
51878;SHT31;37911;51.526;11.536;2023-12-20T17:43:19;5.20;89.55
51878;SHT31;37911;51.526;11.536;2023-12-20T17:46:22;5.18;89.74
51878;SHT31;37911;51.526;11.536;2023-12-20T17:49:25;5.12;89.95
51878;SHT31;37911;51.526;11.536;2023-12-20T17:52:31;5.13;89.91
51878;SHT31;37911;51.526;11.536;2023-12-20T17:55:34;5.15;90.11
51878;SHT31;37911;51.526;11.536;2023-12-20T17:58:40;5.12;90.29
51878;SHT31;37911;51.526;11.536;2023-12-20T18:01:44;5.08;90.16
51878;SHT31;37911;51.526;11.536;2023-12-20T18:04:47;5.06;90.29
51878;SHT31;37911;51.526;11.536;2023-12-20T18:07:50;5.03;90.48
51878;SHT31;37911;51.526;11.536;2023-12-20T18:10:54;5.05;90.32
51878;SHT31;37911;51.526;11.536;2023-12-20T18:13:59;5.03;90.16
51878;SHT31;37911;51.526;11.536;2023-12-20T18:17:03;5.03;90.17
51878;SHT31;37911;51.526;11.536;2023-12-20T18:20:07;5.02;90.34
51878;SHT31;37911;51.526;11.536;2023-12-20T18:23:11;5.02;90.41
51878;SHT31;37911;51.526;11.536;2023-12-20T18:26:14;4.96;90.42
51878;SHT31;37911;51.526;11.536;2023-12-20T18:29:20;4.99;90.63
51878;SHT31;37911;51.526;11.536;2023-12-20T18:32:23;4.97;90.85
51878;SHT31;37911;51.526;11.536;2023-12-20T18:35:26;5.05;90.62
51878;SHT31;37911;51.526;11.536;2023-12-20T18:38:32;5.05;90.61
51878;SHT31;37911;51.526;11.536;2023-12-20T18:41:35;5.05;90.67
51878;SHT31;37911;51.526;11.536;2023-12-20T18:44:42;5.06;90.64
51878;SHT31;37911;51.526;11.536;2023-12-20T18:47:46;5.02;90.78
51878;SHT31;37911;51.526;11.536;2023-12-20T18:50:49;4.97;90.95
51878;SHT31;37911;51.526;11.536;2023-12-20T18:53:52;4.97;91.03
51878;SHT31;37911;51.526;11.536;2023-12-20T18:56:56;5.02;91.11
51878;SHT31;37911;51.526;11.536;2023-12-20T19:00:02;5.05;91.11
51878;SHT31;37911;51.526;11.536;2023-12-20T19:03:05;5.06;91.17
51878;SHT31;37911;51.526;11.536;2023-12-20T19:06:09;5.05;91.44
51878;SHT31;37911;51.526;11.536;2023-12-20T19:09:12;5.06;91.54
51878;SHT31;37911;51.526;11.536;2023-12-20T19:12:16;5.06;91.66
51878;SHT31;37911;51.526;11.536;2023-12-20T19:15:22;5.05;91.91
51878;SHT31;37911;51.526;11.536;2023-12-20T19:18:26;5.03;92.07
51878;SHT31;37911;51.526;11.536;2023-12-20T19:21:29;5.08;92.09